createdAt,value
2023-03-20T00:02:23.115Z,11.47
2023-03-20T00:04:51.601Z,12.89
2023-03-20T00:07:19.549Z,12.91
2023-03-20T00:09:48.603Z,11.92
2023-03-20T00:12:22.478Z,11.14
2023-03-20T00:14:50.516Z,10.80
2023-03-20T00:17:21.168Z,12.00
2023-03-20T00:19:49.254Z,13.18
2023-03-20T00:22:17.277Z,12.59
2023-03-20T00:24:45.292Z,11.64
2023-03-20T00:27:15.600Z,10.96
2023-03-20T00:29:44.336Z,10.89
2023-03-20T00:32:13.877Z,12.28
2023-03-20T00:34:42.078Z,13.14
2023-03-20T00:37:11.904Z,12.27
2023-03-20T00:39:41.406Z,11.37
2023-03-20T00:42:21.124Z,10.75
2023-03-20T00:44:54.920Z,11.38
2023-03-20T00:47:24.646Z,12.90
2023-03-20T00:49:54.770Z,13.22
2023-03-20T00:52:23.445Z,12.18
2023-03-20T00:54:51.529Z,11.33
2023-03-20T00:57:25.355Z,10.73
2023-03-20T01:00:31.776Z,10.74
2023-03-20T01:02:59.765Z,12.58
2023-03-20T01:05:29.139Z,13.28
2023-03-20T01:07:57.007Z,12.36
2023-03-20T01:10:30.209Z,11.48
2023-03-20T01:13:00.851Z,10.85
2023-03-20T01:15:33.532Z,11.16
2023-03-20T01:18:01.443Z,12.70
2023-03-20T01:20:30.955Z,13.62
2023-03-20T01:22:58.906Z,12.89
2023-03-20T01:25:26.877Z,11.95
2023-03-20T01:27:55.308Z,11.28
2023-03-20T01:30:27.028Z,11.22
2023-03-20T01:32:55.648Z,12.66
2023-03-20T01:35:27.676Z,13.46
2023-03-20T01:37:56.414Z,12.58
2023-03-20T01:40:44.574Z,11.74
2023-03-20T01:43:17.288Z,11.07
2023-03-20T01:46:29.945Z,11.34
2023-03-20T01:49:21.298Z,13.23
2023-03-20T01:51:51.150Z,13.50
2023-03-20T01:54:35.906Z,12.50
2023-03-20T01:57:04.713Z,11.65
2023-03-20T01:59:56.054Z,11.50
2023-03-20T02:02:27.665Z,13.09
2023-03-20T02:05:02.422Z,13.79
2023-03-20T02:07:31.062Z,12.80
2023-03-20T02:09:59.155Z,11.92
2023-03-20T02:12:27.130Z,11.36
2023-03-20T02:14:55.235Z,12.15
2023-03-20T02:17:23.360Z,13.57
2023-03-20T02:20:30.503Z,13.66
2023-03-20T02:23:07.425Z,12.39
2023-03-20T02:25:49.951Z,11.63
2023-03-20T02:28:46.106Z,12.24
2023-03-20T02:31:27.043Z,13.97
2023-03-20T02:33:58.458Z,14.41
2023-03-20T02:37:15.724Z,13.32
2023-03-20T02:39:52.483Z,12.18
2023-03-20T02:42:46.130Z,12.19
2023-03-20T02:45:26.622Z,13.86
2023-03-20T02:48:17.291Z,14.25
2023-03-20T02:50:54.478Z,13.05
2023-03-20T02:53:49.548Z,12.18
2023-03-20T02:56:21.241Z,12.18
2023-03-20T02:59:37.811Z,13.68
2023-03-20T03:02:10.347Z,14.30
2023-03-20T03:05:01.117Z,13.23
2023-03-20T03:07:31.897Z,12.35
2023-03-20T03:10:09.347Z,13.04
2023-03-20T03:12:41.342Z,14.51
2023-03-20T03:15:33.587Z,14.76
2023-03-20T03:18:02.795Z,13.50
2023-03-20T03:20:41.604Z,12.66
2023-03-20T03:23:30.641Z,12.70
2023-03-20T03:26:01.277Z,14.26
2023-03-20T03:28:40.804Z,14.83
2023-03-20T03:31:12.967Z,13.77
2023-03-20T03:33:45.820Z,12.86
2023-03-20T03:36:16.676Z,12.77
2023-03-20T03:38:54.465Z,14.13
2023-03-20T03:41:34.913Z,15.23
2023-03-20T03:44:26.699Z,14.51
2023-03-20T03:47:04.199Z,13.33
2023-03-20T03:49:38.795Z,13.23
2023-03-20T03:52:15.631Z,14.62
2023-03-20T03:54:57.581Z,15.65
2023-03-20T03:57:33.066Z,14.87
2023-03-20T04:00:02.303Z,13.76
2023-03-20T04:02:30.640Z,13.50
2023-03-20T04:04:59.791Z,14.77
2023-03-20T04:07:29.080Z,15.61
2023-03-20T04:09:57.087Z,14.74
2023-03-20T04:12:33.081Z,13.72
2023-03-20T04:15:03.374Z,12.96
2023-03-20T04:17:31.708Z,13.24
2023-03-20T04:19:59.915Z,14.70
2023-03-20T04:22:28.225Z,15.72
2023-03-20T04:24:56.678Z,15.05
2023-03-20T04:27:24.770Z,13.95
2023-03-20T04:29:52.843Z,13.61
2023-03-20T04:32:20.966Z,14.85
2023-03-20T04:34:48.985Z,15.89
2023-03-20T04:37:17.011Z,15.31
2023-03-20T04:39:44.940Z,14.21
2023-03-20T04:42:12.827Z,13.74
2023-03-20T04:44:40.841Z,14.90
2023-03-20T04:47:08.873Z,16.01
2023-03-20T04:49:36.814Z,15.49
2023-03-20T04:52:05.577Z,14.41
2023-03-20T04:54:33.467Z,13.61
2023-03-20T04:57:01.375Z,14.07
2023-03-20T04:59:29.400Z,15.47
2023-03-20T05:01:57.545Z,15.96
2023-03-20T05:04:26.330Z,14.93
2023-03-20T05:06:54.400Z,13.96
2023-03-20T05:09:22.654Z,13.73
2023-03-20T05:11:50.795Z,15.02
2023-03-20T05:14:18.677Z,15.98
2023-03-20T05:16:46.682Z,15.27
2023-03-20T05:19:14.679Z,14.23
2023-03-20T05:21:42.651Z,13.83
2023-03-20T05:24:10.666Z,15.03
2023-03-20T05:26:38.822Z,15.88
2023-03-20T05:29:06.763Z,15.04
2023-03-20T05:31:34.665Z,14.06
2023-03-20T05:36:06.388Z,14.87
2023-03-20T05:38:34.626Z,16.07
2023-03-20T05:41:02.697Z,15.76
2023-03-20T05:43:30.781Z,14.64
2023-03-20T05:45:58.916Z,13.80
2023-03-20T05:48:26.910Z,14.18
2023-03-20T05:50:55.042Z,15.58
2023-03-20T05:53:23.148Z,16.15
2023-03-20T05:55:51.202Z,15.14
2023-03-20T05:58:19.169Z,14.18
2023-03-20T06:00:47.209Z,14.04
2023-03-20T06:03:15.547Z,15.39
2023-03-20T06:05:44.655Z,16.19
2023-03-20T06:08:12.719Z,15.26
2023-03-20T06:10:40.826Z,14.30
2023-03-20T06:13:08.891Z,14.12
2023-03-20T06:15:37.406Z,15.46
2023-03-20T06:18:05.838Z,16.30
2023-03-20T06:20:33.973Z,15.42
2023-03-20T06:23:01.925Z,14.44
2023-03-20T06:25:29.856Z,14.24
2023-03-20T06:27:58.017Z,15.53
2023-03-20T06:36:40.223Z,14.26
2023-03-20T06:39:08.712Z,14.67
2023-03-20T06:41:37.478Z,16.07
2023-03-20T06:44:05.836Z,16.61
2023-03-20T06:46:34.044Z,15.59
2023-03-20T06:49:02.163Z,14.67
2023-03-20T06:57:43.516Z,16.55
2023-03-20T07:00:13.291Z,15.47
2023-03-20T07:02:42.143Z,14.61
2023-03-20T07:05:10.459Z,14.94
2023-03-20T07:07:38.627Z,16.31
2023-03-20T07:10:07.850Z,16.87
2023-03-20T07:12:35.989Z,15.87
2023-03-20T07:15:05.925Z,14.93
2023-03-20T07:17:33.906Z,14.82
2023-03-20T07:20:02.082Z,16.11
2023-03-20T07:22:31.704Z,16.87
2023-03-20T07:25:00.051Z,15.99
2023-03-20T07:27:28.132Z,15.01
2023-03-20T07:29:56.132Z,14.88
2023-03-20T07:32:24.334Z,16.17
2023-03-20T07:34:52.411Z,17.11
2023-03-20T07:37:24.760Z,16.38
2023-03-20T07:39:54.538Z,15.32
2023-03-20T07:42:22.970Z,15.09
2023-03-20T07:44:51.765Z,16.34
2023-03-20T07:47:19.885Z,17.44
2023-03-20T07:49:48.357Z,17.17
2023-03-20T07:52:17.576Z,16.03
2023-03-20T07:54:45.785Z,15.56
2023-03-20T07:57:17.261Z,16.65
2023-03-20T07:59:45.601Z,17.74
2023-03-20T08:02:18.071Z,17.47
2023-03-20T08:04:46.817Z,16.33
2023-03-20T08:07:15.120Z,15.85
2023-03-20T08:09:43.593Z,17.00
2023-03-20T08:12:12.094Z,18.21
2023-03-20T08:14:40.954Z,18.02
2023-03-20T08:17:15.004Z,16.84
2023-03-20T08:19:46.455Z,16.21
2023-03-20T08:22:14.546Z,17.30
2023-03-20T08:24:42.930Z,18.41
2023-03-20T08:27:11.171Z,17.75
2023-03-20T08:29:39.543Z,16.68
2023-03-20T08:32:07.693Z,16.36
2023-03-20T08:34:36.232Z,17.47
2023-03-20T08:37:11.374Z,18.35
2023-03-20T08:39:40.486Z,17.55
2023-03-20T08:42:08.868Z,16.56
2023-03-20T08:44:48.097Z,16.66
2023-03-20T08:47:17.487Z,17.92
2023-03-20T08:49:46.548Z,18.47
2023-03-20T08:52:15.070Z,17.52
2023-03-20T08:54:51.834Z,16.65
2023-03-20T08:57:20.208Z,17.38
2023-03-20T08:59:53.274Z,18.70
2023-03-20T09:02:24.968Z,18.96
2023-03-20T09:04:56.402Z,17.81
2023-03-20T09:07:25.869Z,16.89
2023-03-20T09:09:53.929Z,17.08
2023-03-20T09:12:23.026Z,18.31
2023-03-20T09:14:54.461Z,18.68
2023-03-20T09:17:23.169Z,17.61
2023-03-20T09:19:51.414Z,16.77
2023-03-20T09:36:04.305Z,17.30
2023-03-20T09:38:32.486Z,18.61
2023-03-20T09:41:02.982Z,18.80
2023-03-20T09:43:36.977Z,17.69
2023-03-20T09:46:08.943Z,16.77
2023-03-20T09:49:40.444Z,16.71
2023-03-20T09:52:39.084Z,18.67
2023-03-20T09:55:24.169Z,19.08
2023-03-20T09:58:08.495Z,17.82
2023-03-20T10:00:39.743Z,17.52
2023-03-20T10:03:25.711Z,18.84
2023-03-20T10:06:00.217Z,19.50
2023-03-20T10:08:41.110Z,18.49
2023-03-20T10:11:49.171Z,17.63
2023-03-20T10:14:37.322Z,18.80
2023-03-20T10:17:15.583Z,19.65
2023-03-20T10:19:59.192Z,18.70
2023-03-20T10:22:36.769Z,17.91
2023-03-20T10:25:30.770Z,18.43
2023-03-20T10:28:20.614Z,19.83
2023-03-20T10:30:57.913Z,19.12
2023-03-20T10:33:44.737Z,18.25
2023-03-20T10:36:52.904Z,18.84
2023-03-20T10:39:36.118Z,20.15
2023-03-20T10:42:14.921Z,19.29
2023-03-20T10:44:51.754Z,18.43
2023-03-20T10:47:23.762Z,18.33
2023-03-20T10:50:04.504Z,19.77
2023-03-20T10:52:38.829Z,20.65
2023-03-20T10:55:17.298Z,19.88
2023-03-20T10:57:53.199Z,19.09
2023-03-20T11:00:25.035Z,18.62
2023-03-20T11:02:53.186Z,18.86
2023-03-20T11:05:35.069Z,20.42
2023-03-20T11:09:22.548Z,20.75
2023-03-20T11:12:01.667Z,20.15
2023-03-20T11:14:37.615Z,19.73
2023-03-20T11:17:07.223Z,19.40
2023-03-20T11:19:39.952Z,19.15
2023-03-20T11:22:30.250Z,18.92
2023-03-20T11:25:02.929Z,18.76
2023-03-20T11:27:34.265Z,18.63
2023-03-20T11:30:08.178Z,18.51
2023-03-20T11:32:41.828Z,19.45
2023-03-20T11:35:33.804Z,20.52
2023-03-20T11:38:30.713Z,19.86
2023-03-20T11:40:59.236Z,19.20
2023-03-20T11:43:28.816Z,18.80
2023-03-20T11:46:13.902Z,18.53
2023-03-20T11:48:48.255Z,18.30
2023-03-20T11:51:23.068Z,18.14
2023-03-20T11:54:05.868Z,17.98
2023-03-20T11:56:34.857Z,17.83
2023-03-20T11:59:15.458Z,17.73
2023-03-20T12:01:53.102Z,17.66
2023-03-20T12:04:37.716Z,17.58
2023-03-20T12:07:19.753Z,17.52
2023-03-20T12:10:22.417Z,17.47
2023-03-20T12:13:15.658Z,17.52
2023-03-20T12:16:04.671Z,17.60
2023-03-20T12:18:39.735Z,17.61
2023-03-20T12:21:25.802Z,17.56
2023-03-20T12:24:18.750Z,17.46
2023-03-20T12:27:08.580Z,17.38
2023-03-20T12:29:47.310Z,17.28
2023-03-20T12:32:36.506Z,17.20
2023-03-20T12:35:30.643Z,17.12
2023-03-20T12:38:02.073Z,17.75
2023-03-20T12:40:43.705Z,19.45
2023-03-20T12:43:20.066Z,19.92
2023-03-20T12:46:42.127Z,19.17
2023-03-20T12:49:22.546Z,18.51
2023-03-20T12:52:15.244Z,18.21
2023-03-20T12:55:03.639Z,17.96
2023-03-20T12:57:49.365Z,17.77
2023-03-20T13:01:19.894Z,17.70
2023-03-20T13:04:10.865Z,17.73
2023-03-20T13:07:01.492Z,17.73
2023-03-20T13:09:53.640Z,17.66
2023-03-20T13:12:36.457Z,17.58
2023-03-20T13:15:04.391Z,17.48
2023-03-20T13:18:09.011Z,17.37
2023-03-20T13:20:50.982Z,17.19
2023-03-20T13:23:38.582Z,17.02
2023-03-20T13:26:39.253Z,16.87
2023-03-20T13:29:29.207Z,16.69
2023-03-20T13:32:43.170Z,16.51
2023-03-20T13:35:20.815Z,16.29
2023-03-20T13:37:59.749Z,17.09
2023-03-20T13:40:40.486Z,18.58
2023-03-20T13:44:07.108Z,18.46
2023-03-20T13:46:46.984Z,17.42
2023-03-20T13:50:23.062Z,18.28
2023-03-20T13:54:08.246Z,18.34
2023-03-20T13:56:53.871Z,17.12
2023-03-20T13:59:54.616Z,16.59
2023-03-20T14:03:11.058Z,16.74
2023-03-20T14:05:42.564Z,18.44
2023-03-20T14:08:37.056Z,18.31
2023-03-20T14:11:11.200Z,17.31
2023-03-20T14:13:39.857Z,16.68
2023-03-20T14:16:10.339Z,16.66
2023-03-20T14:18:50.472Z,17.92
2023-03-20T14:21:23.520Z,18.64
2023-03-20T14:24:20.463Z,17.79
2023-03-20T14:26:57.992Z,16.95
2023-03-20T14:29:35.707Z,16.54
2023-03-20T14:32:14.194Z,17.53
2023-03-20T14:34:59.276Z,18.80
2023-03-20T14:37:37.800Z,18.71
2023-03-20T14:40:18.109Z,17.73
2023-03-20T14:43:26.172Z,17.03
2023-03-20T14:46:01.153Z,17.29
2023-03-20T14:48:37.809Z,18.57
2023-03-20T14:51:20.965Z,19.23
2023-03-20T14:53:57.948Z,18.28
2023-03-20T14:56:31.948Z,17.46
2023-03-20T14:59:04.286Z,17.75
2023-03-20T15:01:38.306Z,19.08
2023-03-20T15:04:29.125Z,19.62
2023-03-20T15:07:03.861Z,18.51
2023-03-20T15:09:36.383Z,17.64
2023-03-20T15:12:04.753Z,17.05
2023-03-20T15:14:45.700Z,17.45
2023-03-20T15:17:21.881Z,18.99
2023-03-20T15:19:50.848Z,18.97
2023-03-20T15:22:21.874Z,17.95
2023-03-20T15:24:55.938Z,17.25
2023-03-20T15:27:29.838Z,17.94
2023-03-20T15:29:58.870Z,19.24
2023-03-20T15:32:27.604Z,18.88
2023-03-20T15:34:57.296Z,17.88
2023-03-20T15:37:27.289Z,17.15
2023-03-20T15:40:00.008Z,16.61
2023-03-20T15:42:27.974Z,16.19
2023-03-20T15:44:56.910Z,16.85
2023-03-20T15:47:26.318Z,17.80
2023-03-20T15:49:58.198Z,17.19
2023-03-20T15:52:31.889Z,16.47
2023-03-20T15:55:17.276Z,15.92
2023-03-20T15:57:47.318Z,15.59
2023-03-20T16:00:42.892Z,16.58
2023-03-20T16:03:17.061Z,17.57
2023-03-20T16:05:47.686Z,16.81
2023-03-20T16:08:27.178Z,16.08
2023-03-20T16:11:05.839Z,15.53
2023-03-20T16:13:48.270Z,15.12
2023-03-20T16:16:24.827Z,14.96
2023-03-20T16:18:53.395Z,16.16
2023-03-20T16:21:24.255Z,17.05
2023-03-20T16:23:57.129Z,16.39
2023-03-20T16:26:27.410Z,15.66
2023-03-20T16:29:02.321Z,15.14
2023-03-20T16:31:35.896Z,14.93
2023-03-20T16:34:10.027Z,15.97
2023-03-20T16:36:39.150Z,17.27
2023-03-20T16:39:18.385Z,17.13
2023-03-20T16:41:47.427Z,16.20
2023-03-20T16:44:23.549Z,15.55
2023-03-20T16:46:58.514Z,15.12
2023-03-20T16:49:29.853Z,15.89
2023-03-20T16:52:04.559Z,17.13
2023-03-20T16:54:36.278Z,17.22
2023-03-20T16:57:15.569Z,16.32
2023-03-20T16:59:52.012Z,15.57
2023-03-20T17:02:31.395Z,15.42
2023-03-20T17:05:07.856Z,16.58
2023-03-20T17:07:36.396Z,17.33
2023-03-20T17:10:16.923Z,16.67
2023-03-20T17:12:48.603Z,15.81
2023-03-20T17:15:26.809Z,15.23
2023-03-20T17:17:59.564Z,15.42
2023-03-20T17:20:29.018Z,16.82
2023-03-20T17:22:57.200Z,17.26
2023-03-20T17:25:29.359Z,16.39
2023-03-20T17:27:58.772Z,15.61
2023-03-20T17:30:33.083Z,15.07
2023-03-20T17:33:01.420Z,15.15
2023-03-20T17:35:29.545Z,16.37
2023-03-20T17:37:58.519Z,17.06
2023-03-20T17:40:32.915Z,16.28
2023-03-20T17:43:01.488Z,15.49
2023-03-20T17:45:30.422Z,14.95
2023-03-20T17:48:01.250Z,15.28
2023-03-20T17:50:29.744Z,16.62
2023-03-20T17:52:59.009Z,17.30
2023-03-20T17:55:27.227Z,16.48
2023-03-20T17:57:55.523Z,15.65
2023-03-20T18:00:25.519Z,15.06
2023-03-20T18:02:54.391Z,15.37
2023-03-20T18:05:22.688Z,16.72
2023-03-20T18:07:50.769Z,17.30
2023-03-20T18:10:32.231Z,16.45
2023-03-20T18:13:01.274Z,15.55
2023-03-20T18:15:29.502Z,15.01
2023-03-20T18:17:57.987Z,15.60
2023-03-20T18:20:31.125Z,16.93
2023-03-20T18:22:59.788Z,17.39
2023-03-20T18:25:30.284Z,16.44
2023-03-20T18:28:00.727Z,15.60
2023-03-20T18:30:37.715Z,14.99
2023-03-20T18:33:06.319Z,15.30
2023-03-20T18:35:36.090Z,16.64
2023-03-20T18:38:05.530Z,17.20
2023-03-20T18:40:37.641Z,16.33
2023-03-20T18:43:05.972Z,15.47
2023-03-20T18:45:33.986Z,14.89
2023-03-20T18:48:03.980Z,15.11
2023-03-20T18:50:38.694Z,16.39
2023-03-20T18:53:08.237Z,17.06
2023-03-20T18:55:38.165Z,16.23
2023-03-20T18:58:06.578Z,15.37
2023-03-20T19:00:40.460Z,14.85
2023-03-20T19:03:11.285Z,15.78
2023-03-20T19:05:39.701Z,17.06
2023-03-20T19:08:08.052Z,16.75
2023-03-20T19:10:40.075Z,15.77
2023-03-20T19:13:17.108Z,15.02
2023-03-20T19:15:46.244Z,15.08
2023-03-20T19:18:33.375Z,16.47
2023-03-20T19:21:01.887Z,17.15
2023-03-20T19:23:31.883Z,16.21
2023-03-20T19:26:00.423Z,15.33
2023-03-20T19:28:39.842Z,15.10
2023-03-20T19:31:16.831Z,16.52
2023-03-20T19:33:45.711Z,17.23
2023-03-20T19:36:30.463Z,16.36
2023-03-20T19:39:00.589Z,15.36
2023-03-20T19:41:29.769Z,15.20
2023-03-20T19:43:58.754Z,16.48
2023-03-20T19:46:39.706Z,17.40
2023-03-20T19:49:21.072Z,16.59
2023-03-20T19:51:49.986Z,15.56
2023-03-20T19:54:21.982Z,15.28
2023-03-20T19:56:51.059Z,16.48
2023-03-20T19:59:20.929Z,17.52
2023-03-20T20:01:51.410Z,16.98
2023-03-20T20:04:22.503Z,15.94
2023-03-20T20:06:55.306Z,15.18
2023-03-20T20:09:29.320Z,15.75
2023-03-20T20:11:58.645Z,17.07
2023-03-20T20:14:27.849Z,17.51
2023-03-20T20:16:56.556Z,16.50
2023-03-20T20:19:30.545Z,15.58
2023-03-20T20:24:50.902Z,16.80
2023-03-20T20:27:22.688Z,17.44
2023-03-20T20:29:53.944Z,16.49
2023-03-20T20:32:25.960Z,15.57
2023-03-20T20:38:30.841Z,16.71
2023-03-20T20:40:35.623Z,17.31
2023-03-20T20:43:09.979Z,16.33
2023-03-20T20:45:40.108Z,15.44
2023-03-20T20:48:09.708Z,15.85
2023-03-20T20:50:39.246Z,17.02
2023-03-20T20:53:08.626Z,17.48
2023-03-20T20:55:37.306Z,16.49
2023-03-20T20:58:08.560Z,15.54
2023-03-20T21:00:48.948Z,15.36
2023-03-20T21:03:19.280Z,16.66
2023-03-20T21:05:51.276Z,17.49
2023-03-20T21:08:19.914Z,16.71
2023-03-20T21:11:06.578Z,15.71
2023-03-20T21:13:44.611Z,15.61
2023-03-20T21:16:17.977Z,16.84
2023-03-20T21:18:46.534Z,17.37
2023-03-20T21:21:15.619Z,16.40
2023-03-20T21:23:44.057Z,15.47
2023-03-20T21:26:15.754Z,15.58
2023-03-20T21:28:44.593Z,16.80
2023-03-20T21:31:27.308Z,17.59
2023-03-20T21:33:56.655Z,16.76
2023-03-20T21:36:25.415Z,15.76
2023-03-20T21:39:09.735Z,15.53
2023-03-20T21:41:41.474Z,16.76
2023-03-20T21:44:16.573Z,17.62
2023-03-20T21:53:12.540Z,15.54
2023-03-20T22:01:29.496Z,16.18
2023-03-20T22:04:37.618Z,15.26
2023-03-20T22:10:03.463Z,17.22
2023-03-20T22:18:12.030Z,15.15
2023-03-20T22:21:19.929Z,15.89
2023-03-20T22:24:05.736Z,17.05
2023-03-20T22:29:39.339Z,15.95
2023-03-20T22:35:23.015Z,15.69
2023-03-20T22:38:06.045Z,16.65
2023-03-20T22:46:05.638Z,15.29
2023-03-20T22:48:40.839Z,15.94
2023-03-20T22:51:09.136Z,16.76
2023-03-20T22:53:37.287Z,17.06
2023-03-20T22:56:06.991Z,16.13
2023-03-20T22:58:35.099Z,15.24
2023-03-20T23:01:03.525Z,15.44
2023-03-20T23:03:41.311Z,16.47
2023-03-20T23:06:23.540Z,17.14
2023-03-20T23:08:56.561Z,16.23
2023-03-20T23:11:26.930Z,15.25
2023-03-20T23:13:55.126Z,15.30
2023-03-20T23:16:23.535Z,16.14
2023-03-20T23:18:52.545Z,16.84
2023-03-20T23:21:23.735Z,16.94
2023-03-20T23:23:52.914Z,15.92
2023-03-20T23:26:22.071Z,15.04
2023-03-20T23:28:53.312Z,15.17
2023-03-20T23:31:24.830Z,16.16
2023-03-20T23:33:56.174Z,16.94
2023-03-20T23:36:35.928Z,16.40
2023-03-20T23:39:10.606Z,15.31
2023-03-20T23:42:05.038Z,15.07
2023-03-20T23:44:29.340Z,16.31
2023-03-20T23:46:57.783Z,16.76
2023-03-20T23:49:26.801Z,15.84
2023-03-20T23:51:54.850Z,14.94
2023-03-20T23:54:22.902Z,14.74
2023-03-20T23:56:50.958Z,15.70
